Latest Weather Observations for Pallamana

IDS60801

Issued at 3:35 pm CST Saturday 30 August 2014 (issued every 30 minutes, with the page automatically refreshed every 10 minutes)

About weather observations | Map of weather stations | Latest weather observations for SA | Other Formats
Station Details ID: 024584 Name: PALLAMANA AERODROME Lat: -35.06 Lon: 139.23 Height: 45.0 m
Data from the previous 72 hours. | See also: Recent months at Pallamana
Date/Time
CST
Temp
°C
App
Temp
°C
Dew
Point
Rel
Hum
%
Delta-T
°C
Wind Press
QNH
hPa
Press
MSL
hPa
Rain
since 9 am
mm
Dir
 
Spd
km/h
Gust
km/h
Spd
kts
Gust
kts
30/03:30pm 24.5 18.9 0.9 21 11.0 NNW 20 26 11 14 1019.3 1019.3 0.0
30/03:00pm 24.9 19.4 1.7 22 11.0 NNW 20 26 11 14 1019.5 1019.5 0.0
30/02:30pm 24.8 19.3 0.3 20 11.3 NW 19 28 10 15 1019.7 1019.7 0.0
30/02:00pm 25.1 20.0 1.0 20 11.3 N 17 30 9 16 1019.9 1019.9 0.0
30/01:30pm 24.8 20.5 0.7 20 11.2 NW 13 17 7 9 1020.2 1020.2 0.0
30/01:00pm 25.5 19.8 0.7 19 11.6 N 20 28 11 15 1020.7 1020.7 0.0
30/12:30pm 25.5 20.4 3.2 23 10.9 NNE 19 24 10 13 1021.3 1021.3 0.0
30/12:00pm 24.6 20.0 3.5 25 10.3 NNE 17 26 9 14 1022.0 1022.0 0.0
30/11:30am 23.9 19.2 5.1 29 9.4 N 19 26 10 14 1022.5 1022.6 0.0
30/11:00am 22.0 18.7 6.4 36 7.9 N 13 17 7 9 1022.9 1023.0 0.0
30/10:30am 19.7 16.8 6.5 42 6.6 NNE 11 15 6 8 1023.4 1023.5 0.0
30/10:00am 18.3 14.9 6.1 44 6.0 NNE 13 17 7 9 1023.7 1023.8 0.0
30/09:30am 16.7 13.0 6.2 50 5.1 NNE 15 17 8 9 1023.9 1024.0 0.0
30/09:00am 14.3 12.4 7.4 63 3.4 N 7 9 4 5 1024.1 1024.2 0.0
30/08:30am 11.1 9.1 6.9 75 2.0 N 7 9 4 5 1024.3 1024.4 0.0
30/08:00am 8.4 6.3 5.7 83 1.2 N 6 6 3 3 1024.3 1024.4 0.0
30/07:30am 7.0 4.1 4.7 85 1.0 NNW 9 11 5 6 1024.2 1024.3 0.0
30/07:00am 5.1 2.0 3.4 89 0.7 NNW 9 9 5 5 1024.3 1024.4 0.0
30/06:30am 4.9 1.7 2.9 87 0.8 N 9 13 5 7 1024.2 1024.3 0.0
30/06:00am 5.5 2.0 3.6 87 0.8 N 11 11 6 6 1024.1 1024.2 0.0
30/05:30am 3.6 2.0 2.3 91 0.5 CALM 0 0 0 0 1024.1 1024.2 0.0
30/05:00am 3.4 1.8 2.4 93 0.4 CALM 0 0 0 0 1024.2 1024.3 0.0
30/04:30am 3.8 2.2 2.3 90 0.6 CALM 0 0 0 0 1024.1 1024.2 0.0
30/04:00am 3.3 0.4 2.5 94 0.3 NNW 7 9 4 5 1024.1 1024.2 0.0
30/03:30am 3.7 1.0 2.4 91 0.5 NW 6 7 3 4 1024.1 1024.2 0.0
30/03:00am 4.2 1.6 3.2 93 0.4 NW 6 7 3 4 1024.2 1024.3 0.0
30/02:30am 5.7 3.3 4.3 91 0.6 NW 6 9 3 5 1024.5 1024.6 0.0
30/02:00am 4.8 3.4 3.3 90 0.6 W 0 0 0 0 1024.7 1024.8 0.0
30/01:30am 5.6 4.2 3.4 86 0.9 CALM 0 0 0 0 1025.0 1025.1 0.0
30/01:00am 7.0 5.8 4.7 85 1.0 CALM 0 0 0 0 1025.1 1025.2 0.0
30/12:30am 7.5 5.9 4.5 81 1.3 W 2 6 1 3 1025.2 1025.3 0.0
30/12:00am 7.8 6.6 4.8 81 1.3 WSW 0 0 0 0 1025.2 1025.3 0.0
 
Date/Time
CST
Temp
°C
App
Temp
°C
Dew
Point
Rel
Hum
%
Delta-T
°C
Wind Press
QNH
hPa
Press
MSL
hPa
Rain
since 9 am
mm
Dir
 
Spd
km/h
Gust
km/h
Spd
kts
Gust
kts
29/11:30pm 10.3 9.3 5.5 72 2.2 CALM 0 0 0 0 1025.5 1025.6 0.0
29/11:00pm 8.9 7.9 5.6 80 1.5 CALM 0 0 0 0 1025.7 1025.8 0.0
29/10:30pm 7.9 6.7 4.5 79 1.5 CALM 0 0 0 0 1025.8 1025.9 0.0
29/10:00pm 9.7 8.4 6.0 78 1.7 WSW 2 6 1 3 1026.0 1026.1 0.0
29/09:30pm 11.4 9.3 6.7 73 2.2 WSW 7 11 4 6 1026.0 1026.1 0.0
29/09:00pm 12.2 9.8 7.2 71 2.4 WSW 9 13 5 7 1026.1 1026.2 0.0
29/08:30pm 13.6 9.7 7.2 65 3.1 SW 17 20 9 11 1025.8 1025.9 0.0
29/08:00pm 13.7 10.0 6.4 61 3.5 WSW 15 17 8 9 1025.7 1025.8 0.0
29/07:30pm 15.5 11.8 6.2 54 4.5 W 15 19 8 10 1025.6 1025.7 0.0
29/07:00pm 12.9 10.6 5.9 62 3.3 S 7 9 4 5 1025.3 1025.4 0.0
29/06:30pm 14.2 11.9 4.7 53 4.4 S 6 9 3 5 1025.1 1025.2 0.0
29/06:00pm 18.2 17.5 7.0 48 5.6 CALM 0 0 0 0 1025.0 1025.1 0.0
29/05:30pm 22.2 20.9 7.8 39 7.5 NE 4 7 2 4 1024.9 1025.0 0.0
29/05:00pm 22.8 23.2 11.1 47 6.5 CALM 0 0 0 0 1024.9 1025.0 0.0
29/04:30pm 24.3 22.3 4.3 27 9.9 NE 4 7 2 4 1024.9 1025.0 0.0
29/04:00pm 25.3 23.3 0.1 19 11.7 CALM 0 0 0 0 1025.0 1025.1 0.0
29/03:30pm 24.8 22.2 3.2 24 10.5 E 6 11 3 6 1025.1 1025.2 0.0
29/03:00pm 24.4 21.4 2.1 23 10.6 E 7 13 4 7 1025.4 1025.5 0.0
29/02:30pm 24.5 21.2 2.6 24 10.5 E 9 13 5 7 1025.6 1025.7 0.0
29/02:00pm 24.9 21.4 3.4 24 10.5 NE 11 13 6 7 1025.9 1026.0 0.0
29/01:30pm 24.2 21.6 4.1 27 9.9 ENE 7 13 4 7 1026.2 1026.3 0.0
29/01:00pm 23.6 20.4 5.2 30 9.2 E 11 15 6 8 1026.6 1026.7 0.0
29/12:30pm 23.7 21.1 6.2 32 8.9 N 9 15 5 8 1027.2 1027.3 0.0
29/12:00pm 22.5 19.6 6.6 35 8.1 NNE 11 17 6 9 1027.9 1028.0 0.0
29/11:30am 22.6 20.0 7.8 38 7.7 NNE 11 19 6 10 1028.2 1028.3 0.0
29/11:00am 21.0 17.8 8.3 44 6.7 N 15 19 8 10 1028.5 1028.6 0.0
29/10:30am 19.4 16.4 7.6 46 6.0 NNE 13 15 7 8 1028.7 1028.8 0.0
29/10:00am 18.4 15.4 7.7 49 5.5 NNE 13 17 7 9 1028.9 1029.0 0.0
29/09:30am 17.0 14.3 7.4 53 4.8 NNE 11 15 6 8 1029.0 1029.1 0.0
29/09:00am 16.0 14.3 8.3 60 3.9 NNE 7 11 4 6 1029.2 1029.3 0.0
29/08:30am 13.7 12.1 8.7 72 2.5 N 7 11 4 6 1029.3 1029.4 0.0
29/08:00am 10.3 8.3 8.7 90 0.8 NNW 9 11 5 6 1029.3 1029.4 0.0
29/07:30am 7.8 5.2 6.3 90 0.7 NW 9 11 5 6 1029.1 1029.2 0.0
29/07:00am 5.1 1.7 3.9 92 0.5 NW 11 13 6 7 1029.0 1029.1 0.0
29/06:30am 2.6 -0.8 1.8 94 0.3 NW 9 11 5 6 1028.9 1029.0 0.0
29/06:00am 3.2 0.1 1.6 89 0.6 NW 7 9 4 5 1028.8 1028.9 0.0
29/05:30am 4.4 1.2 2.9 90 0.6 NNW 9 9 5 5 1028.5 1028.6 0.0
29/05:00am 3.9 2.4 2.9 93 0.4 CALM 0 0 0 0 1028.6 1028.7 0.0
29/04:30am 2.8 1.0 1.5 91 0.5 CALM 0 0 0 0 1028.5 1028.6 0.0
29/04:00am 3.8 2.2 2.3 90 0.6 CALM 0 0 0 0 1028.4 1028.5 0.0
29/03:30am 4.5 3.1 3.5 93 0.4 CALM 0 0 0 0 1028.2 1028.3 0.0
29/03:00am 4.7 2.1 3.0 89 0.7 WNW 6 7 3 4 1028.3 1028.4 0.0
29/02:30am 5.1 3.8 4.1 93 0.4 CALM 0 6 0 3 1028.3 1028.4 0.0
29/02:00am 6.5 5.4 4.9 89 0.7 CALM 0 0 0 0 1028.5 1028.6 0.0
29/01:30am 6.0 4.3 3.9 86 0.9 WNW 2 6 1 3 1028.7 1028.8 0.0
29/01:00am 7.4 4.5 4.9 84 1.1 WNW 9 15 5 8 1028.8 1028.9 0.0
29/12:30am 7.5 5.1 5.2 85 1.0 WNW 7 9 4 5 1028.7 1028.8 0.0
29/12:00am 8.7 5.5 5.3 79 1.5 W 11 13 6 7 1028.7 1028.8 0.0
 
Date/Time
CST
Temp
°C
App
Temp
°C
Dew
Point
Rel
Hum
%
Delta-T
°C
Wind Press
QNH
hPa
Press
MSL
hPa
Rain
since 9 am
mm
Dir
 
Spd
km/h
Gust
km/h
Spd
kts
Gust
kts
28/11:30pm 7.2 5.0 5.4 88 0.8 W 6 9 3 5 1028.9 1029.0 0.0
28/11:00pm 8.4 6.1 5.0 79 1.5 WSW 6 7 3 4 1029.0 1029.1 0.0
28/10:30pm 10.7 7.4 6.6 76 1.9 WSW 13 15 7 8 1029.1 1029.2 0.0
28/10:00pm 10.4 7.6 6.8 78 1.7 SW 11 13 6 7 1029.1 1029.2 0.0
28/09:30pm 11.5 9.1 6.9 73 2.2 SSW 9 13 5 7 1029.0 1029.1 0.0
28/09:00pm 12.4 9.9 6.5 67 2.8 SW 9 13 5 7 1028.9 1029.0 0.0
28/08:30pm 12.3 9.9 7.1 70 2.5 SW 9 13 5 7 1028.6 1028.7 0.0
28/08:00pm 12.4 9.5 6.7 68 2.7 S 11 17 6 9 1028.5 1028.6 0.0
28/07:30pm 12.0 10.1 6.5 69 2.6 WSW 6 15 3 8 1027.9 1028.0 0.0
28/07:00pm 12.0 11.4 7.2 72 2.3 CALM 0 4 0 2 1027.5 1027.6 0.0
28/06:30pm 16.6 14.0 6.1 50 5.1 NNW 9 9 5 5 1027.1 1027.2 0.0
28/06:00pm 17.2 15.4 7.1 51 5.0 N 6 9 3 5 1027.1 1027.2 0.0
28/05:30pm 19.8 18.9 10.5 55 5.0 N 6 7 3 4 1027.0 1027.1 0.0
28/05:00pm 21.7 20.2 8.6 43 6.9 N 6 7 3 4 1027.0 1027.1 0.0
28/04:30pm 23.0 20.5 4.8 30 9.0 N 7 11 4 6 1026.9 1027.0 0.0
28/04:00pm 23.4 21.0 4.2 28 9.5 N 6 11 3 6 1026.7 1026.8 0.0
28/03:30pm 23.5 20.4 3.4 27 9.7 NNE 9 13 5 7 1026.7 1026.8 0.0
28/03:00pm 23.6 20.5 3.6 27 9.7 NNE 9 15 5 8 1026.8 1026.9 0.0
28/02:30pm 23.6 20.1 3.6 27 9.7 N 11 15 6 8 1027.0 1027.1 0.0
28/02:00pm 23.0 19.2 3.8 28 9.4 NNE 13 20 7 11 1027.1 1027.2 0.0
28/01:30pm 23.1 20.1 4.3 29 9.2 N 9 17 5 9 1027.4 1027.5 0.0
28/01:00pm 22.8 20.3 4.7 30 9.0 N 7 13 4 7 1027.8 1027.9 0.0
28/12:30pm 22.4 19.8 5.9 34 8.3 NNE 9 15 5 8 1028.2 1028.3 0.0
28/12:00pm 22.0 19.1 6.6 37 7.8 NNE 11 15 6 8 1028.7 1028.8 0.0
28/11:30am 21.3 18.1 6.7 38 7.4 N 13 17 7 9 1028.9 1029.0 0.0
28/11:00am 20.1 16.9 7.0 42 6.7 NNE 13 17 7 9 1029.1 1029.2 0.0
28/10:30am 18.7 16.5 7.9 49 5.5 NE 9 13 5 7 1029.3 1029.4 0.0
28/10:00am 16.9 14.8 8.4 57 4.3 NE 9 13 5 7 1029.5 1029.6 0.0
28/09:30am 15.2 13.1 8.2 63 3.5 N 9 11 5 6 1029.6 1029.7 0.0
28/09:00am 13.2 11.5 8.3 72 2.4 N 7 9 4 5 1029.8 1029.9 0.0
28/08:30am 10.5 10.0 7.8 83 1.3 CALM 0 0 0 0 1029.7 1029.8 0.0
28/08:00am 7.8 7.1 6.9 94 0.4 CALM 0 0 0 0 1029.6 1029.7 0.0
28/07:30am 4.9 3.7 4.4 97 0.2 CALM 0 0 0 0 1029.2 1029.3 0.0
28/07:00am 3.7 2.2 3.0 95 0.3 CALM 0 0 0 0 1028.9 1029.0 0.0
28/06:30am 2.9 1.2 1.9 93 0.4 CALM 0 0 0 0 1028.6 1028.7 0.0
28/06:00am 3.3 1.7 2.5 94 0.3 CALM 0 0 0 0 1028.4 1028.5 0.0
28/05:30am 4.1 2.7 3.6 97 0.2 CALM 0 0 0 0 1028.2 1028.3 0.0
28/05:00am 4.7 3.3 3.7 93 0.4 CALM 0 0 0 0 1028.1 1028.2 0.0
28/04:30am 4.6 3.2 3.6 93 0.4 CALM 0 0 0 0 1028.1 1028.2 0.0
28/04:00am 4.6 2.1 3.6 93 0.4 WSW 6 7 3 4 1028.0 1028.1 0.0
28/03:30am 4.9 3.6 3.9 93 0.4 CALM 0 0 0 0 1028.0 1028.1 0.0
28/03:00am 4.3 2.0 2.8 90 0.6 SW 4 7 2 4 1028.2 1028.3 0.0
28/02:30am 4.8 3.4 3.6 92 0.5 CALM 0 0 0 0 1028.2 1028.3 0.0
28/02:00am 5.8 4.2 4.4 91 0.6 WSW 2 7 1 4 1028.3 1028.4 0.0
28/01:30am 5.4 4.1 4.0 91 0.6 CALM 0 0 0 0 1028.6 1028.7 0.0
28/01:00am 7.0 6.0 5.4 89 0.7 CALM 0 0 0 0 1028.8 1028.9 0.0
28/12:30am 6.3 5.2 4.9 91 0.6 CALM 0 6 0 3 1028.7 1028.8 0.0
28/12:00am 6.5 4.3 5.1 91 0.6 SW 6 9 3 5 1028.8 1028.9 0.0
 
Date/Time
CST
Temp
°C
App
Temp
°C
Dew
Point
Rel
Hum
%
Delta-T
°C
Wind Press
QNH
hPa
Press
MSL
hPa
Rain
since 9 am
mm
Dir
 
Spd
km/h
Gust
km/h
Spd
kts
Gust
kts
27/11:30pm 5.7 3.2 4.0 89 0.7 WSW 6 7 3 4 1028.9 1029.0 0.0
27/11:00pm 6.2 5.0 4.8 91 0.6 CALM 0 0 0 0 1028.9 1029.0 0.0
27/10:30pm 7.7 6.8 6.1 90 0.7 CALM 0 0 0 0 1028.9 1029.0 0.0
27/10:00pm 7.7 6.3 5.4 85 1.0 WSW 2 6 1 3 1028.8 1028.9 0.0
27/09:30pm 8.3 6.3 6.1 86 1.0 WSW 6 9 3 5 1028.6 1028.7 0.0
27/09:00pm 10.8 7.6 7.0 77 1.8 W 13 15 7 8 1028.3 1028.4 0.0
27/08:30pm 9.9 7.3 6.0 77 1.8 SSW 9 9 5 5 1028.1 1028.2 0.0
27/08:00pm 12.2 10.2 7.0 70 2.5 SSW 7 9 4 5 1027.9 1028.0 0.0
27/07:30pm 12.1 10.1 6.4 68 2.7 SSW 6 9 3 5 1027.6 1027.7 0.0
27/07:00pm 12.8 10.3 6.5 65 3.0 SSW 9 11 5 6 1027.3 1027.4 0.0
27/06:30pm 13.3 10.7 6.1 61 3.4 SSW 9 17 5 9 1026.8 1026.9 0.0
27/06:00pm 16.7 14.9 7.2 53 4.7 WSW 6 6 3 3 1026.5 1026.6 0.0
27/05:30pm 19.3 17.5 7.2 45 6.1 WSW 6 7 3 4 1026.3 1026.4 0.0
27/05:00pm 21.3 19.2 5.9 36 7.7 WNW 6 7 3 4 1026.2 1026.3 0.0
27/04:30pm 20.9 18.7 5.2 35 7.7 NNW 6 7 3 4 1025.9 1026.0 0.0
27/04:00pm 21.2 19.2 4.2 32 8.2 N 4 9 2 5 1025.8 1025.9 0.0

Other Formats:

Comma delimited format used in spreadsheet applications
http://www.bom.gov.au/fwo/IDS60801/IDS60801.95818.axf

JavaScript Object Notation format (JSON) in row-major order
http://www.bom.gov.au/fwo/IDS60801/IDS60801.95818.json